Time;durP1;ratioP1;P1;durP2;ratioP2;P2;SDS_P1;SDS_P2;PMS_P1;PMS_P2;Temp;Humidity;BMP_temperature;BMP_pressure;BME280_temperature;BME280_humidity;BME280_pressure;Samples;Min_cycle;Max_cycle;Signal;HPM_P1;HPM_P2
2022/07/01 00:01:37;;;;;;;2.58;0.70;;;15.70;90.30;;;;;;4964173;28;20096;-79
2022/07/01 00:04:02;;;;;;;2.92;0.98;;;15.70;90.40;;;;;;4979014;28;20050;-77
2022/07/01 00:06:28;;;;;;;2.25;0.70;;;15.70;90.30;;;;;;4948056;28;20133;-77
2022/07/01 00:08:54;;;;;;;1.85;0.82;;;15.70;90.60;;;;;;4979070;28;20042;-76
2022/07/01 00:11:20;;;;;;;1.92;0.70;;;15.70;90.60;;;;;;4978030;28;20130;-78
2022/07/01 00:13:46;;;;;;;1.17;0.77;;;15.70;90.80;;;;;;4961837;28;20118;-80
2022/07/01 00:16:11;;;;;;;1.80;1.30;;;15.70;91.10;;;;;;4977568;28;20043;-78
2022/07/01 00:18:38;;;;;;;4.28;1.13;;;15.80;90.70;;;;;;4945119;28;20046;-76
2022/07/01 00:21:04;;;;;;;2.75;1.00;;;15.70;90.80;;;;;;4961353;28;20454;-78
2022/07/01 00:23:31;;;;;;;2.95;1.60;;;15.70;91.10;;;;;;4945152;28;20081;-76
2022/07/01 00:25:57;;;;;;;4.30;1.30;;;15.70;91.00;;;;;;4961841;28;20086;-78
2022/07/01 00:28:22;;;;;;;4.43;2.22;;;15.70;91.40;;;;;;4977169;28;20390;-77
2022/07/01 00:30:48;;;;;;;4.45;1.92;;;15.70;91.20;;;;;;4976724;28;20042;-76
2022/07/01 00:33:14;;;;;;;4.88;1.70;;;15.60;91.40;;;;;;4976473;28;20077;-77
2022/07/01 00:35:40;;;;;;;3.35;1.80;;;15.60;91.50;;;;;;4960497;28;20043;-80
2022/07/01 00:38:05;;;;;;;3.85;2.15;;;15.60;91.50;;;;;;4976670;28;20042;-77
2022/07/01 00:40:31;;;;;;;3.17;1.70;;;15.70;91.20;;;;;;4976465;28;20378;-78
2022/07/01 00:42:57;;;;;;;5.00;2.10;;;15.60;91.30;;;;;;4976405;28;20046;-78
2022/07/01 00:45:22;;;;;;;3.10;2.00;;;15.60;91.10;;;;;;4976492;28;20050;-77
2022/07/01 00:47:50;;;;;;;3.80;1.50;;;15.60;91.10;;;;;;4976740;28;20053;-75
2022/07/01 00:50:16;;;;;;;4.35;2.08;;;15.60;91.10;;;;;;4976290;28;20042;-77
2022/07/01 00:52:44;;;;;;;3.33;1.58;;;15.60;90.60;;;;;;4976707;28;20050;-80
2022/07/01 00:55:11;;;;;;;4.25;1.42;;;15.60;90.70;;;;;;4960061;28;20046;-76
2022/07/01 00:57:39;;;;;;;1.83;1.58;;;15.70;90.70;;;;;;4976281;28;20121;-77
2022/07/01 01:00:11;;;;;;;3.50;1.38;;;15.60;90.70;;;;;;4960640;28;20039;-78
2022/07/01 01:02:37;;;;;;;3.97;1.38;;;15.60;90.70;;;;;;4980289;28;20046;-78
2022/07/01 01:05:08;;;;;;;4.88;1.70;;;15.60;90.60;;;;;;4980256;28;20105;-76
2022/07/01 01:07:34;;;;;;;2.78;1.60;;;15.60;90.60;;;;;;4980181;28;20035;-77
2022/07/01 01:10:01;;;;;;;4.70;1.70;;;15.60;90.50;;;;;;4963864;28;20042;-79
2022/07/01 01:12:28;;;;;;;1.85;1.33;;;15.60;90.60;;;;;;4963643;28;20050;-79
2022/07/01 01:14:54;;;;;;;4.75;1.80;;;15.60;90.50;;;;;;4996110;28;20046;-80
2022/07/01 01:17:21;;;;;;;3.15;1.67;;;15.60;90.50;;;;;;4979923;28;20042;-79
2022/07/01 01:19:48;;;;;;;3.40;1.88;;;15.70;90.40;;;;;;4995715;28;20052;-78
2022/07/01 01:22:15;;;;;;;3.55;2.20;;;15.60;90.40;;;;;;4979385;28;20038;-78
2022/07/01 01:24:42;;;;;;;7.28;2.30;;;15.60;90.30;;;;;;4963492;28;20046;-77
2022/07/01 01:27:08;;;;;;;5.68;2.42;;;15.60;90.20;;;;;;4979574;28;20046;-75
2022/07/01 01:29:38;;;;;;;2.53;2.05;;;15.60;90.20;;;;;;4963403;28;20129;-76
2022/07/01 01:32:06;;;;;;;5.40;2.88;;;15.60;90.30;;;;;;4963466;28;20053;-79
2022/07/01 01:34:36;;;;;;;3.05;2.35;;;15.60;90.10;;;;;;4979599;28;20090;-78
2022/07/01 01:37:03;;;;;;;4.18;2.30;;;15.60;90.20;;;;;;4979186;28;20367;-80
2022/07/01 01:39:29;;;;;;;5.82;3.58;;;15.50;90.40;;;;;;4979063;28;20039;-79
2022/07/01 01:41:55;;;;;;;3.97;3.00;;;15.50;90.20;;;;;;4963045;28;20391;-77
2022/07/01 01:44:20;;;;;;;5.95;4.30;;;15.50;90.40;;;;;;4979481;28;20085;-79
2022/07/01 01:46:46;;;;;;;5.43;3.50;;;15.50;90.40;;;;;;4979159;28;20043;-76
2022/07/01 01:49:12;;;;;;;4.90;3.55;;;15.50;91.10;;;;;;4978877;28;20125;-78
2022/07/01 01:51:38;;;;;;;6.90;4.00;;;15.50;90.70;;;;;;4979036;28;20042;-80
2022/07/01 01:54:04;;;;;;;6.05;3.63;;;15.40;91.00;;;;;;4978821;28;20038;-78
2022/07/01 01:56:30;;;;;;;3.67;2.78;;;15.40;90.80;;;;;;4978810;28;20392;-76
2022/07/01 01:58:56;;;;;;;5.22;3.08;;;15.40;90.90;;;;;;4962794;28;20037;-77
2022/07/01 02:01:22;;;;;;;5.60;3.30;;;15.40;90.90;;;;;;4979033;28;20467;-79
2022/07/01 02:03:50;;;;;;;6.55;3.75;;;15.40;90.90;;;;;;4946857;28;20044;-79
2022/07/01 02:06:18;;;;;;;5.20;4.65;;;15.40;91.10;;;;;;4978817;28;20491;-77
2022/07/01 02:08:44;;;;;;;6.60;4.07;;;15.30;91.60;;;;;;4978961;28;20434;-79
2022/07/01 02:11:10;;;;;;;9.10;5.15;;;15.30;92.20;;;;;;4978727;28;20057;-79
2022/07/01 02:13:36;;;;;;;5.97;4.15;;;15.30;91.90;;;;;;4978481;28;20145;-76
2022/07/01 02:16:03;;;;;;;7.20;4.32;;;15.30;91.70;;;;;;4978660;28;20054;-80
2022/07/01 02:18:28;;;;;;;6.65;4.45;;;15.30;91.60;;;;;;4995068;28;20430;-77
2022/07/01 02:20:54;;;;;;;8.85;5.03;;;15.20;91.90;;;;;;4946691;28;20049;-78
2022/07/01 02:23:20;;;;;;;5.05;4.55;;;15.10;91.80;;;;;;4978677;28;20035;-79
2022/07/01 02:25:46;;;;;;;6.95;5.22;;;15.20;91.60;;;;;;4962456;28;20046;-77
2022/07/01 02:28:12;;;;;;;5.45;4.55;;;15.00;91.80;;;;;;4962399;28;20125;-80
2022/07/01 02:30:38;;;;;;;6.07;4.38;;;15.00;91.60;;;;;;4962338;28;20130;-77
2022/07/01 02:33:08;;;;;;;5.90;4.82;;;15.10;91.50;;;;;;4978377;28;20483;-77
2022/07/01 02:35:39;;;;;;;6.60;4.80;;;15.00;91.30;;;;;;4962185;28;20104;-78
2022/07/01 02:38:06;;;;;;;6.00;4.43;;;15.10;91.20;;;;;;4978267;28;20034;-74
2022/07/01 02:40:33;;;;;;;4.95;4.32;;;15.10;91.30;;;;;;4978081;28;20170;-78
2022/07/01 02:42:59;;;;;;;5.13;4.07;;;15.10;91.20;;;;;;4978452;28;20179;-78
2022/07/01 02:45:25;;;;;;;5.75;4.60;;;15.10;91.20;;;;;;4978206;28;20398;-77
2022/07/01 02:47:51;;;;;;;6.97;4.50;;;15.20;90.90;;;;;;4977739;28;20046;-78
2022/07/01 02:50:18;;;;;;;6.80;4.55;;;15.10;90.80;;;;;;4977857;28;20046;-77
2022/07/01 02:52:45;;;;;;;7.38;4.80;;;15.10;90.80;;;;;;4978015;28;20048;-79
2022/07/01 02:55:13;;;;;;;5.53;5.03;;;15.10;90.70;;;;;;4961743;28;20410;-77
2022/07/01 02:57:40;;;;;;;9.07;5.50;;;15.10;90.60;;;;;;4977791;28;20082;-75
2022/07/01 03:00:09;;;;;;;8.02;5.35;;;15.10;90.60;;;;;;4977513;28;20045;-78
2022/07/01 03:02:35;;;;;;;6.88;5.07;;;15.10;90.80;;;;;;4977784;28;20104;-77
2022/07/01 03:05:01;;;;;;;7.68;5.20;;;15.00;90.60;;;;;;4961659;28;20431;-79
2022/07/01 03:07:27;;;;;;;6.60;5.57;;;15.10;90.60;;;;;;4977411;28;20398;-77
2022/07/01 03:09:53;;;;;;;8.38;6.25;;;15.10;90.80;;;;;;4961502;28;20042;-80
2022/07/01 03:12:24;;;;;;;8.43;6.18;;;15.00;90.60;;;;;;4945203;28;20458;-77
2022/07/01 03:14:59;;;;;;;8.48;5.85;;;15.00;90.60;;;;;;4993337;28;20077;-77
2022/07/01 03:17:25;;;;;;;7.30;6.30;;;15.00;90.50;;;;;;4961013;28;20085;-78
2022/07/01 03:19:52;;;;;;;8.77;5.55;;;15.00;90.40;;;;;;4977047;28;20048;-79
2022/07/01 03:22:20;;;;;;;7.85;5.22;;;15.00;90.30;;;;;;4976906;28;20085;-76
2022/07/01 03:24:46;;;;;;;9.32;6.00;;;15.10;90.50;;;;;;4960420;28;20049;-79
2022/07/01 03:27:12;;;;;;;8.73;6.25;;;15.00;90.40;;;;;;4976638;28;20053;-76
2022/07/01 03:29:38;;;;;;;8.60;6.35;;;15.00;90.70;;;;;;4960716;28;20042;-77
2022/07/01 03:32:03;;;;;;;9.07;6.40;;;14.90;90.60;;;;;;4945068;28;20049;-78
2022/07/01 03:34:29;;;;;;;6.72;5.95;;;14.90;90.40;;;;;;4961202;28;20042;-77
2022/07/01 03:36:55;;;;;;;9.63;6.35;;;14.90;90.40;;;;;;4961161;28;20038;-76
2022/07/01 03:39:20;;;;;;;7.80;6.15;;;14.90;90.50;;;;;;4976995;28;20046;-78
2022/07/01 03:41:46;;;;;;;7.82;5.53;;;14.90;90.40;;;;;;4961045;28;20038;-75
2022/07/01 03:44:12;;;;;;;6.45;5.45;;;15.00;90.60;;;;;;4960836;28;20054;-76
2022/07/01 03:46:38;;;;;;;10.35;6.55;;;14.90;90.50;;;;;;4976860;28;20129;-79
2022/07/01 03:49:07;;;;;;;8.50;6.75;;;14.90;90.40;;;;;;4977177;28;20109;-77
2022/07/01 03:51:33;;;;;;;9.55;7.03;;;14.90;90.50;;;;;;4977042;28;20050;-76
2022/07/01 03:56:43;;;;;;;8.88;6.53;;;14.80;91.00;;;;;;4963003;28;20038;-76
2022/07/01 03:59:09;;;;;;;9.98;7.10;;;14.80;91.00;;;;;;4977008;28;20042;-77
2022/07/01 04:01:34;;;;;;;11.35;6.90;;;14.80;90.80;;;;;;4944880;28;20475;-78
2022/07/01 04:04:00;;;;;;;7.47;6.38;;;14.80;91.00;;;;;;4961066;28;20038;-76
2022/07/01 04:06:26;;;;;;;8.88;6.28;;;14.80;90.80;;;;;;4976856;28;20486;-79
2022/07/01 04:08:52;;;;;;;8.05;5.38;;;14.80;91.20;;;;;;4960743;28;20043;-78
2022/07/01 04:11:21;;;;;;;8.20;5.78;;;14.80;91.30;;;;;;4976457;28;20046;-76
2022/07/01 04:13:50;;;;;;;6.78;5.28;;;14.80;91.00;;;;;;4960177;28;20104;-75
2022/07/01 04:16:20;;;;;;;10.50;5.15;;;14.90;90.60;;;;;;4992379;28;20498;-76
2022/07/01 04:18:47;;;;;;;5.70;4.07;;;14.90;90.70;;;;;;4976500;28;20045;-78
2022/07/01 04:23:57;;;;;;;5.70;3.55;;;14.80;90.70;;;;;;4977129;28;20047;-78
2022/07/01 04:26:23;;;;;;;5.90;2.85;;;14.80;90.60;;;;;;4944765;28;20381;-77
2022/07/01 04:28:54;;;;;;;6.05;2.78;;;14.80;90.40;;;;;;4976665;28;20529;-77
2022/07/01 04:31:21;;;;;;;6.15;3.28;;;14.80;90.20;;;;;;4961322;28;20053;-79
2022/07/01 04:33:50;;;;;;;7.78;3.10;;;14.80;90.00;;;;;;4976967;28;20050;-77
2022/07/01 04:36:16;;;;;;;5.45;2.65;;;14.80;89.90;;;;;;4980655;28;20038;-76
2022/07/01 04:38:42;;;;;;;6.70;2.17;;;14.90;89.80;;;;;;4996558;28;20101;-79
2022/07/01 04:43:51;;;;;;;5.32;2.72;;;14.90;89.60;;;;;;4980469;28;20045;-77
2022/07/01 04:46:17;;;;;;;8.70;2.85;;;14.90;89.50;;;;;;4964103;28;20038;-76
2022/07/01 04:48:43;;;;;;;7.25;2.70;;;14.80;89.90;;;;;;4980325;28;20096;-79
2022/07/01 04:51:09;;;;;;;6.55;2.90;;;14.80;89.80;;;;;;4980305;28;20143;-77
2022/07/01 04:53:34;;;;;;;5.18;2.50;;;14.80;89.90;;;;;;4980081;28;20038;-78
2022/07/01 04:56:00;;;;;;;6.40;3.13;;;14.80;90.20;;;;;;4963975;28;20046;-76
2022/07/01 04:58:26;;;;;;;6.93;3.55;;;14.70;90.40;;;;;;4964289;28;20034;-80
2022/07/01 05:00:52;;;;;;;8.82;3.30;;;14.80;90.60;;;;;;4979971;28;20034;-78
2022/07/01 05:03:18;;;;;;;6.55;3.45;;;14.80;90.50;;;;;;4979936;28;20104;-77
2022/07/01 05:05:44;;;;;;;6.68;3.55;;;14.80;90.20;;;;;;4980160;28;20042;-78
2022/07/01 05:08:10;;;;;;;6.25;3.25;;;14.80;90.60;;;;;;4964141;28;20440;-77
2022/07/01 05:10:36;;;;;;;7.88;3.80;;;14.80;90.10;;;;;;4979947;28;20042;-77
2022/07/01 05:13:02;;;;;;;6.50;3.90;;;14.80;90.40;;;;;;4979671;28;20055;-77
2022/07/01 05:15:28;;;;;;;7.45;3.92;;;14.90;90.30;;;;;;4995932;28;20129;-77
2022/07/01 05:23:22;;;;;;;7.13;4.80;;;15.00;90.50;;;;;;4979795;28;20042;-78
2022/07/01 05:25:48;;;;;;;9.82;5.47;;;15.00;90.80;;;;;;4980095;28;20467;-78
2022/07/01 05:28:14;;;;;;;10.57;6.07;;;15.00;91.40;;;;;;4979619;28;20048;-78
2022/07/01 05:30:40;;;;;;;13.68;6.18;;;15.00;91.60;;;;;;4979443;28;20050;-77
2022/07/01 05:33:06;;;;;;;10.32;6.70;;;15.00;91.40;;;;;;4963272;28;20092;-76
2022/07/01 05:35:31;;;;;;;11.32;7.13;;;15.00;91.80;;;;;;4963327;28;20125;-77
2022/07/01 05:37:58;;;;;;;11.70;8.13;;;15.10;91.40;;;;;;4979690;28;20439;-77
2022/07/01 05:40:25;;;;;;;10.73;8.85;;;15.10;91.50;;;;;;4947591;28;20042;-77
2022/07/01 05:42:52;;;;;;;13.43;9.23;;;15.20;91.10;;;;;;4963365;28;20038;-77
2022/07/01 05:45:18;;;;;;;15.48;9.60;;;15.20;91.50;;;;;;4979160;28;20042;-77
2022/07/01 05:47:44;;;;;;;13.32;9.35;;;15.30;91.10;;;;;;4978709;28;20074;-77
2022/07/01 05:50:09;;;;;;;16.95;10.63;;;15.40;90.80;;;;;;4979477;28;20154;-78
2022/07/01 05:52:35;;;;;;;17.83;9.82;;;15.40;91.00;;;;;;4963023;28;20486;-77
2022/07/01 05:55:01;;;;;;;15.13;10.20;;;15.40;90.80;;;;;;4978933;28;20108;-79
2022/07/01 05:57:27;;;;;;;17.75;9.90;;;15.40;91.00;;;;;;4995128;28;20084;-78
2022/07/01 05:59:52;;;;;;;15.48;8.80;;;15.40;90.80;;;;;;4962917;28;20039;-79
2022/07/01 06:02:18;;;;;;;16.85;11.18;;;15.50;90.70;;;;;;4979363;28;20042;-78
2022/07/01 06:04:44;;;;;;;15.27;10.90;;;15.50;90.80;;;;;;4979142;28;20479;-78
2022/07/01 06:07:13;;;;;;;13.10;10.70;;;15.50;90.60;;;;;;4978897;28;20537;-78
2022/07/01 06:09:39;;;;;;;17.88;11.13;;;15.50;90.90;;;;;;4962835;28;20078;-77
2022/07/01 06:12:05;;;;;;;16.17;11.10;;;15.50;90.60;;;;;;4962999;28;20046;-78
2022/07/01 06:14:32;;;;;;;16.40;10.77;;;15.50;90.80;;;;;;4978548;28;20069;-78
2022/07/01 06:16:58;;;;;;;20.52;11.00;;;15.50;90.70;;;;;;4978629;28;20438;-78
2022/07/01 06:19:23;;;;;;;16.70;10.75;;;15.50;90.80;;;;;;4963051;28;20056;-79
2022/07/01 06:21:49;;;;;;;18.00;10.95;;;15.60;91.00;;;;;;4978789;28;20545;-77
2022/07/01 06:24:15;;;;;;;18.08;10.27;;;15.60;91.00;;;;;;4946625;28;20036;-79
2022/07/01 06:26:41;;;;;;;17.30;10.35;;;15.60;91.00;;;;;;4979030;28;20038;-78
2022/07/01 06:29:07;;;;;;;12.43;8.80;;;15.70;90.60;;;;;;4978325;28;20480;-77
2022/07/01 06:31:35;;;;;;;15.15;9.40;;;15.70;90.50;;;;;;4978288;28;20471;-77
2022/07/01 06:34:01;;;;;;;15.10;8.85;;;15.70;90.40;;;;;;4978239;28;20072;-78
2022/07/01 06:36:26;;;;;;;18.98;9.40;;;15.80;90.30;;;;;;4978233;28;20581;-78
2022/07/01 06:38:52;;;;;;;14.13;8.18;;;15.80;89.90;;;;;;4962366;28;20382;-78
2022/07/01 06:41:27;;;;;;;15.85;7.90;;;15.70;90.30;;;;;;4978305;28;20034;-77
2022/07/01 06:43:57;;;;;;;16.38;7.93;;;15.70;90.20;;;;;;4994780;28;20372;-78
2022/07/01 06:46:23;;;;;;;11.75;7.10;;;15.80;90.10;;;;;;4978430;28;20089;-77
2022/07/01 06:48:49;;;;;;;16.52;7.88;;;15.80;90.00;;;;;;4974222;28;20720;-79
2022/07/01 06:51:15;;;;;;;11.40;6.78;;;15.80;90.00;;;;;;4973397;28;20129;-78
2022/07/01 06:53:41;;;;;;;12.85;7.07;;;15.90;89.80;;;;;;4974558;28;20543;-78
2022/07/01 06:56:08;;;;;;;13.10;6.57;;;15.90;90.00;;;;;;4958552;28;20456;-77
2022/07/01 06:58:33;;;;;;;17.15;6.35;;;15.90;89.80;;;;;;4956589;28;20034;-78
2022/07/01 07:00:59;;;;;;;11.85;5.35;;;16.00;89.50;;;;;;4972908;28;20708;-77
2022/07/01 07:03:25;;;;;;;9.75;4.68;;;16.00;89.30;;;;;;4941954;28;20042;-77
2022/07/01 07:05:52;;;;;;;10.63;5.15;;;16.00;89.10;;;;;;4974730;28;20104;-77
2022/07/01 07:08:18;;;;;;;12.18;4.88;;;16.10;88.90;;;;;;4979907;28;20107;-78
2022/07/01 07:10:44;;;;;;;12.15;5.05;;;16.20;88.70;;;;;;4958071;28;20042;-77
2022/07/01 07:13:10;;;;;;;12.07;5.10;;;16.30;88.60;;;;;;4995981;28;20066;-76
2022/07/01 07:15:35;;;;;;;12.93;5.40;;;16.30;88.10;;;;;;4957602;28;20105;-76
2022/07/01 07:18:01;;;;;;;11.30;5.28;;;16.40;88.50;;;;;;4979107;28;20034;-77
2022/07/01 07:20:28;;;;;;;10.93;4.60;;;16.40;88.60;;;;;;4972846;28;20550;-78
2022/07/01 07:22:53;;;;;;;12.77;5.70;;;16.40;88.50;;;;;;4958289;28;20038;-76
2022/07/01 07:25:19;;;;;;;9.10;4.50;;;16.50;88.30;;;;;;4973862;28;20049;-78
2022/07/01 07:27:46;;;;;;;9.38;3.90;;;16.50;87.40;;;;;;4957694;28;20042;-77
2022/07/01 07:30:16;;;;;;;10.15;3.88;;;16.70;87.50;;;;;;4958163;28;20061;-77
2022/07/01 07:32:41;;;;;;;13.30;4.28;;;16.80;87.30;;;;;;4958570;28;20502;-79
2022/07/01 07:35:08;;;;;;;8.73;3.50;;;16.90;87.10;;;;;;4980791;28;20042;-79
2022/07/01 07:37:34;;;;;;;10.48;3.65;;;17.00;86.80;;;;;;4957480;28;20108;-80
2022/07/01 07:40:00;;;;;;;9.35;3.28;;;17.00;86.00;;;;;;4956539;28;20042;-79
2022/07/01 07:42:27;;;;;;;8.18;3.42;;;17.10;85.20;;;;;;4957608;28;20383;-78
2022/07/01 07:44:53;;;;;;;9.52;3.30;;;17.20;85.40;;;;;;4971242;28;20372;-77
2022/07/01 07:47:19;;;;;;;8.48;2.70;;;17.20;83.00;;;;;;4957612;28;20049;-78
2022/07/01 07:49:44;;;;;;;9.85;2.70;;;17.40;84.00;;;;;;4972312;28;20042;-82
2022/07/01 07:52:10;;;;;;;10.25;3.40;;;17.40;83.70;;;;;;4957921;28;20046;-80
2022/07/01 07:54:36;;;;;;;6.13;2.65;;;17.50;83.80;;;;;;4973897;28;20046;-80
2022/07/01 07:57:01;;;;;;;9.45;2.10;;;17.60;83.50;;;;;;4973535;28;20541;-80
2022/07/01 07:59:27;;;;;;;5.88;2.75;;;17.70;81.80;;;;;;4956426;28;20042;-80
2022/07/01 08:01:54;;;;;;;8.68;2.80;;;17.80;81.20;;;;;;4973690;28;20125;-80
2022/07/01 08:04:20;;;;;;;7.70;2.20;;;18.00;81.00;;;;;;4958248;28;20438;-80
2022/07/01 08:06:45;;;;;;;6.95;1.92;;;18.10;80.30;;;;;;4939888;28;20104;-79
2022/07/01 08:09:11;;;;;;;5.88;1.80;;;18.20;78.50;;;;;;4989121;28;20056;-79
2022/07/01 08:11:37;;;;;;;6.65;1.90;;;18.20;79.00;;;;;;4952612;28;20414;-80
2022/07/01 08:14:03;;;;;;;8.27;3.13;;;18.40;79.20;;;;;;4976510;28;20073;-80
2022/07/01 08:16:29;;;;;;;6.10;1.73;;;18.50;78.30;;;;;;4989445;28;20050;-78
2022/07/01 08:18:55;;;;;;;4.10;1.80;;;18.40;77.70;;;;;;4955540;28;20117;-79
2022/07/01 08:21:21;;;;;;;6.65;2.38;;;18.40;77.40;;;;;;4957328;28;20125;-80
2022/07/01 08:23:47;;;;;;;6.70;2.38;;;18.40;77.60;;;;;;4972206;28;20125;-78
2022/07/01 08:26:14;;;;;;;9.68;1.90;;;18.30;77.90;;;;;;4957760;28;20134;-81
2022/07/01 08:28:40;;;;;;;7.13;1.80;;;18.40;76.60;;;;;;4957060;28;20601;-80
2022/07/01 08:31:06;;;;;;;4.45;1.88;;;18.50;77.10;;;;;;4972965;28;20049;-81
2022/07/01 08:33:32;;;;;;;4.45;2.00;;;18.30;77.50;;;;;;4973227;28;20042;-80
2022/07/01 08:35:58;;;;;;;6.95;1.85;;;18.40;77.30;;;;;;4941077;28;20462;-80
2022/07/01 08:38:23;;;;;;;7.30;2.60;;;18.40;77.40;;;;;;4939628;28;20503;-79
2022/07/01 08:40:49;;;;;;;6.88;2.42;;;18.40;77.70;;;;;;4956599;28;20405;-78
2022/07/01 08:43:15;;;;;;;8.68;2.10;;;18.50;77.50;;;;;;4956887;28;20038;-78
2022/07/01 08:45:42;;;;;;;4.50;2.00;;;18.50;76.80;;;;;;4941592;28;20065;-79
2022/07/01 08:48:07;;;;;;;6.55;1.63;;;18.50;76.60;;;;;;4956062;28;20058;-79
2022/07/01 08:50:38;;;;;;;6.03;1.80;;;18.50;75.90;;;;;;4971772;28;20096;-78
2022/07/01 08:53:05;;;;;;;4.72;2.00;;;18.50;75.70;;;;;;4972422;28;20050;-78
2022/07/01 08:55:31;;;;;;;4.65;1.60;;;18.50;75.60;;;;;;4956874;28;20699;-79
2022/07/01 08:57:57;;;;;;;3.67;1.70;;;18.70;75.90;;;;;;4969744;28;20074;-78
2022/07/01 09:00:33;;;;;;;6.63;2.10;;;18.80;74.80;;;;;;4971701;28;20516;-79
2022/07/01 09:03:01;;;;;;;4.97;1.70;;;18.90;74.20;;;;;;4972288;28;20034;-79
2022/07/01 09:05:28;;;;;;;8.32;1.70;;;19.20;73.10;;;;;;4973102;28;21332;-79
2022/07/01 09:07:59;;;;;;;4.47;1.70;;;19.40;71.80;;;;;;4955989;28;20129;-77
2022/07/01 09:10:26;;;;;;;6.10;1.50;;;19.30;69.60;;;;;;4971465;28;20046;-79
2022/07/01 09:12:51;;;;;;;5.80;1.50;;;19.40;69.50;;;;;;4977001;28;20134;-78
2022/07/01 09:15:25;;;;;;;5.00;1.95;;;19.20;70.80;;;;;;4953686;28;20130;-79
2022/07/01 09:17:52;;;;;;;4.45;1.58;;;19.10;71.20;;;;;;4968503;28;20043;-78
2022/07/01 09:20:30;;;;;;;5.68;1.70;;;18.90;72.20;;;;;;4953398;28;20415;-78
2022/07/01 09:23:11;;;;;;;6.60;2.03;;;18.80;73.20;;;;;;4956467;28;20068;-79
2022/07/01 09:25:39;;;;;;;2.92;1.20;;;18.70;72.40;;;;;;4982154;28;20121;-78
2022/07/01 09:28:25;;;;;;;5.70;1.33;;;18.60;73.10;;;;;;4971808;28;20062;-79
2022/07/01 09:30:54;;;;;;;2.88;1.10;;;18.60;72.80;;;;;;4971602;28;20109;-77
2022/07/01 09:33:28;;;;;;;5.07;2.00;;;18.60;72.80;;;;;;4972594;28;20046;-79
2022/07/01 09:35:55;;;;;;;4.38;1.70;;;18.70;73.30;;;;;;4971516;28;20047;-79
2022/07/01 09:38:23;;;;;;;5.18;1.15;;;18.80;72.30;;;;;;4970208;28;20483;-79
2022/07/01 09:40:57;;;;;;;4.68;1.30;;;18.90;72.20;;;;;;4969737;28;20077;-78
2022/07/01 09:43:33;;;;;;;2.30;1.00;;;18.90;69.80;;;;;;4970171;28;20082;-77
2022/07/01 09:46:09;;;;;;;4.75;1.42;;;18.90;70.40;;;;;;4970570;28;20042;-78
2022/07/01 09:48:35;;;;;;;4.30;1.80;;;18.90;72.40;;;;;;4969637;28;20146;-76
2022/07/01 09:51:06;;;;;;;3.83;1.35;;;18.60;73.60;;;;;;4970744;28;20121;-77
2022/07/01 09:53:32;;;;;;;4.55;1.63;;;18.50;75.20;;;;;;4970389;28;20058;-78
2022/07/01 09:55:58;;;;;;;6.63;2.15;;;18.20;76.50;;;;;;4956064;28;20042;-80
2022/07/01 09:58:24;;;;;;;4.75;2.05;;;18.00;77.10;;;;;;4971603;28;20054;-79
2022/07/01 10:00:52;;;;;;;8.00;2.38;;;17.90;77.60;;;;;;4939069;28;20735;-77
2022/07/01 10:03:19;;;;;;;7.45;2.22;;;17.80;78.40;;;;;;4952656;28;20049;-78
2022/07/01 10:05:56;;;;;;;5.43;2.65;;;17.80;79.40;;;;;;4972161;28;20073;-78
2022/07/01 10:09:00;;;;;;;5.72;2.83;;;17.60;80.10;;;;;;4971441;28;20142;-81
2022/07/01 10:11:50;;;;;;;6.43;2.75;;;17.50;82.30;;;;;;4972308;28;20038;-79
2022/07/01 10:14:16;;;;;;;4.65;3.17;;;17.60;81.50;;;;;;4991130;28;20047;-78
2022/07/01 10:16:48;;;;;;;5.20;2.80;;;17.70;81.70;;;;;;4956444;28;20046;-79
2022/07/01 10:19:20;;;;;;;7.13;3.10;;;17.90;81.80;;;;;;4971573;28;20046;-80
2022/07/01 10:21:46;;;;;;;6.78;2.70;;;18.00;82.20;;;;;;4967137;28;20047;-77
2022/07/01 10:24:13;;;;;;;5.75;2.08;;;18.10;81.70;;;;;;4972606;28;20860;-79
2022/07/01 10:26:42;;;;;;;5.30;2.88;;;18.20;81.30;;;;;;4971281;28;20065;-80
2022/07/01 10:29:29;;;;;;;5.75;2.63;;;18.20;81.00;;;;;;4972567;28;20051;-78
2022/07/01 10:32:22;;;;;;;8.27;3.30;;;18.10;80.30;;;;;;4959740;28;20419;-78
2022/07/01 10:34:48;;;;;;;4.25;2.67;;;18.20;80.30;;;;;;4968111;28;20410;-78
2022/07/01 10:37:17;;;;;;;7.72;2.75;;;18.10;81.30;;;;;;4972821;28;20126;-79
2022/07/01 10:40:09;;;;;;;6.05;2.25;;;18.10;80.80;;;;;;4960890;28;20038;-76
2022/07/01 10:42:58;;;;;;;5.45;2.42;;;18.20;79.80;;;;;;4972451;28;20130;-78
2022/07/01 10:45:24;;;;;;;7.70;2.30;;;18.20;79.40;;;;;;4975060;28;20098;-77
2022/07/01 10:48:23;;;;;;;7.53;3.05;;;18.30;78.70;;;;;;4959046;28;20042;-80
2022/07/01 10:50:50;;;;;;;4.63;2.20;;;18.40;78.10;;;;;;4974161;28;20035;-80
2022/07/01 10:53:16;;;;;;;4.55;1.83;;;18.30;77.30;;;;;;4974011;28;20491;-78
2022/07/01 10:55:47;;;;;;;4.00;1.45;;;18.40;76.00;;;;;;4973365;28;20047;-77
2022/07/01 10:58:13;;;;;;;2.92;1.50;;;18.40;74.10;;;;;;4974455;28;20046;-80
2022/07/01 11:00:47;;;;;;;4.80;1.33;;;18.50;73.30;;;;;;4974119;28;20042;-81
2022/07/01 11:03:16;;;;;;;2.17;1.35;;;18.50;72.90;;;;;;4974175;28;20053;-81
2022/07/01 11:05:43;;;;;;;5.03;1.50;;;18.40;71.80;;;;;;4974378;28;20082;-81
2022/07/01 11:08:09;;;;;;;3.85;1.52;;;18.50;71.80;;;;;;4973957;28;20042;-79
2022/07/01 11:10:35;;;;;;;4.28;1.70;;;18.70;70.60;;;;;;4974232;28;20438;-76
2022/07/01 11:13:02;;;;;;;3.90;1.23;;;19.00;70.40;;;;;;4957991;28;20059;-78
2022/07/01 11:15:30;;;;;;;2.40;1.15;;;19.30;69.40;;;;;;4990285;28;20136;-80
2022/07/01 11:17:57;;;;;;;2.15;1.00;;;19.40;67.80;;;;;;4974117;28;20043;-78
2022/07/01 11:20:24;;;;;;;4.88;1.40;;;19.50;66.50;;;;;;4974257;28;20045;-77
2022/07/01 11:22:51;;;;;;;2.83;1.08;;;19.60;66.70;;;;;;4989969;28;20118;-79
2022/07/01 11:25:19;;;;;;;4.30;1.30;;;19.80;66.90;;;;;;4973911;28;20038;-82
2022/07/01 11:27:50;;;;;;;4.60;1.65;;;19.70;66.60;;;;;;4974304;28;20039;-80
2022/07/01 11:30:17;;;;;;;2.80;1.30;;;19.70;66.00;;;;;;4958135;28;20038;-80
2022/07/01 11:32:46;;;;;;;5.57;1.30;;;19.70;66.50;;;;;;4957803;28;20061;-79
2022/07/01 11:41:01;;;;;;;3.85;1.58;;;19.70;66.80;;;;;;4973527;28;20514;-77
2022/07/01 11:43:33;;;;;;;3.92;1.10;;;20.00;66.60;;;;;;4973074;28;20035;-76
2022/07/01 11:46:01;;;;;;;2.72;0.90;;;20.40;66.10;;;;;;4957180;28;20048;-79
2022/07/01 11:48:42;;;;;;;2.58;0.90;;;20.50;65.40;;;;;;4973325;28;20046;-76
2022/07/01 11:51:09;;;;;;;2.90;1.00;;;20.50;64.40;;;;;;4973336;28;20491;-78
2022/07/01 11:53:35;;;;;;;3.78;0.95;;;20.60;63.20;;;;;;4973271;28;20039;-81
2022/07/01 11:56:01;;;;;;;2.97;0.80;;;20.70;61.40;;;;;;4973163;28;20093;-79
2022/07/01 11:58:50;;;;;;;2.50;0.68;;;20.80;59.50;;;;;;4973255;28;20041;-80
2022/07/01 12:01:28;;;;;;;2.17;0.80;;;21.00;58.80;;;;;;4973231;28;20523;-77
2022/07/01 12:03:56;;;;;;;1.15;0.65;;;21.10;58.70;;;;;;4973446;28;20419;-78
2022/07/01 12:06:23;;;;;;;1.95;0.77;;;21.20;58.50;;;;;;4956967;28;20125;-77
2022/07/01 12:08:50;;;;;;;4.78;0.90;;;21.50;57.60;;;;;;4973277;28;20113;-80
2022/07/01 12:11:17;;;;;;;3.10;0.82;;;21.40;57.00;;;;;;4973550;28;20047;-79
2022/07/01 12:13:46;;;;;;;2.55;0.70;;;21.20;58.60;;;;;;4972843;28;20154;-76
2022/07/01 12:16:12;;;;;;;4.20;1.33;;;21.30;59.10;;;;;;4956778;28;20491;-79
2022/07/01 12:18:39;;;;;;;4.72;1.00;;;21.50;59.50;;;;;;4957046;28;20097;-83
2022/07/01 12:21:05;;;;;;;6.07;0.85;;;21.60;57.50;;;;;;4940775;28;20042;-80
2022/07/01 12:23:36;;;;;;;2.33;0.80;;;21.80;56.00;;;;;;4973245;28;20126;-77
2022/07/01 12:26:04;;;;;;;4.10;1.38;;;21.90;54.30;;;;;;4973249;28;20155;-78
2022/07/01 12:28:39;;;;;;;3.70;1.00;;;22.00;55.00;;;;;;4973178;28;20133;-80
2022/07/01 12:31:12;;;;;;;3.10;1.02;;;21.90;54.10;;;;;;4957063;28;20047;-80
2022/07/01 12:33:40;;;;;;;3.67;1.47;;;22.00;53.40;;;;;;4973088;28;20162;-79
2022/07/01 12:36:07;;;;;;;3.25;0.85;;;21.90;54.80;;;;;;4956614;28;20302;-79
2022/07/01 12:38:33;;;;;;;2.80;0.85;;;21.80;54.10;;;;;;4972756;28;20088;-77
2022/07/01 12:40:59;;;;;;;5.40;1.27;;;21.70;54.20;;;;;;4972780;28;20043;-77
2022/07/01 12:43:37;;;;;;;4.72;1.25;;;21.60;54.10;;;;;;4956726;28;20038;-80
2022/07/01 12:46:03;;;;;;;5.07;1.10;;;21.50;55.00;;;;;;4972919;28;20066;-77
2022/07/01 12:48:46;;;;;;;5.57;1.10;;;21.10;56.40;;;;;;4972635;28;20495;-80
2022/07/01 12:51:15;;;;;;;4.53;1.30;;;20.90;56.70;;;;;;4956857;28;20112;-81
2022/07/01 12:53:41;;;;;;;4.68;1.38;;;20.60;57.90;;;;;;4972627;28;20487;-78
2022/07/01 12:56:07;;;;;;;6.07;1.50;;;20.40;60.30;;;;;;4973285;28;20045;-77
2022/07/01 12:58:33;;;;;;;2.72;1.30;;;19.80;65.30;;;;;;4960261;28;20035;-78
2022/07/01 13:01:00;;;;;;;3.55;1.52;;;19.40;67.10;;;;;;4976396;28;20046;-79
2022/07/01 13:03:27;;;;;;;7.97;2.00;;;19.10;68.10;;;;;;4976422;28;20043;-77
2022/07/01 13:05:54;;;;;;;5.28;1.77;;;19.00;68.70;;;;;;4944381;28;20043;-76
2022/07/01 13:08:20;;;;;;;4.38;1.63;;;19.20;69.00;;;;;;4960277;28;20548;-79